createdAt,value
2023-03-19T00:02:40.273Z,101202.13
2023-03-19T00:05:07.567Z,101194.47
2023-03-19T00:07:34.535Z,101202.63
2023-03-19T00:10:02.932Z,101203.28
2023-03-19T00:12:29.770Z,101204.06
2023-03-19T00:14:56.560Z,101202.13
2023-03-19T00:17:23.370Z,101196.28
2023-03-19T00:19:50.628Z,101190.31
2023-03-19T00:22:17.491Z,101195.53
2023-03-19T00:24:44.835Z,101204.28
2023-03-19T00:27:12.031Z,101200.63
2023-03-19T00:29:38.929Z,101184.81
2023-03-19T00:32:05.944Z,101186.00
2023-03-19T00:34:32.821Z,101178.53
2023-03-19T00:36:59.797Z,101173.56
2023-03-19T00:39:26.886Z,101172.19
2023-03-19T00:41:53.820Z,101176.13
2023-03-19T00:44:20.660Z,101175.81
2023-03-19T00:46:47.536Z,101180.44
2023-03-19T00:49:14.429Z,101184.91
2023-03-19T00:51:43.885Z,101185.41
2023-03-19T00:54:12.555Z,101191.09
2023-03-19T00:56:39.541Z,101189.72
2023-03-19T00:59:06.962Z,101177.78
2023-03-19T01:01:34.575Z,101182.44
2023-03-19T01:04:01.916Z,101187.84
2023-03-19T01:06:28.874Z,101179.56
2023-03-19T01:08:56.129Z,101173.69
2023-03-19T01:11:25.892Z,101175.28
2023-03-19T01:13:52.897Z,101177.69
2023-03-19T01:16:19.945Z,101168.66
2023-03-19T01:18:47.282Z,101164.66
2023-03-19T01:21:14.692Z,101168.16
2023-03-19T01:23:47.094Z,101174.13
2023-03-19T01:26:14.112Z,101177.09
2023-03-19T01:29:03.571Z,101174.22
2023-03-19T01:31:30.503Z,101171.75
2023-03-19T01:34:32.700Z,101177.44
2023-03-19T01:37:07.827Z,101166.69
2023-03-19T01:39:34.789Z,101167.06
2023-03-19T01:42:06.831Z,101179.38
2023-03-19T01:44:45.121Z,101180.44
2023-03-19T01:47:38.324Z,101181.75
2023-03-19T01:50:54.081Z,101180.25
2023-03-19T01:53:47.717Z,101186.75
2023-03-19T01:56:27.975Z,101185.00
2023-03-19T01:59:17.132Z,101179.69
2023-03-19T02:02:05.532Z,101181.75
2023-03-19T02:04:36.137Z,101187.16
2023-03-19T02:07:04.734Z,101183.19
2023-03-19T02:09:32.187Z,101190.66
2023-03-19T02:12:02.013Z,101183.75
2023-03-19T02:14:29.607Z,101199.06
2023-03-19T02:16:57.002Z,101190.34
2023-03-19T02:20:06.274Z,101194.22
2023-03-19T02:22:33.737Z,101197.47
2023-03-19T02:25:07.409Z,101198.00
2023-03-19T02:27:37.155Z,101205.47
2023-03-19T02:30:27.985Z,101209.03
2023-03-19T02:32:56.434Z,101200.22
2023-03-19T02:35:30.313Z,101214.78
2023-03-19T02:37:57.237Z,101219.19
2023-03-19T02:40:29.635Z,101216.69
2023-03-19T02:42:56.822Z,101224.31
2023-03-19T02:45:29.535Z,101224.00
2023-03-19T02:47:56.709Z,101227.66
2023-03-19T02:50:24.152Z,101233.69
2023-03-19T02:52:51.030Z,101242.41
2023-03-19T02:55:18.610Z,101231.44
2023-03-19T02:57:45.997Z,101230.13
2023-03-19T03:00:13.724Z,101234.78
2023-03-19T03:02:41.106Z,101232.88
2023-03-19T03:05:09.318Z,101237.19
2023-03-19T03:07:37.802Z,101237.56
2023-03-19T03:10:04.956Z,101243.00
2023-03-19T03:12:32.589Z,101238.84
2023-03-19T03:14:59.625Z,101237.47
2023-03-19T03:17:27.051Z,101237.28
2023-03-19T03:19:53.881Z,101237.22
2023-03-19T03:22:20.717Z,101225.72
2023-03-19T03:24:47.558Z,101236.72
2023-03-19T03:27:14.634Z,101241.16
2023-03-19T03:29:41.716Z,101247.69
2023-03-19T03:32:08.951Z,101251.75
2023-03-19T03:34:36.445Z,101250.97
2023-03-19T03:37:03.255Z,101253.47
2023-03-19T03:39:30.232Z,101257.28
2023-03-19T03:41:57.176Z,101268.44
2023-03-19T03:44:24.416Z,101258.31
2023-03-19T03:46:51.976Z,101262.78
2023-03-19T03:49:18.845Z,101250.16
2023-03-19T03:51:45.818Z,101263.03
2023-03-19T03:54:12.781Z,101258.31
2023-03-19T03:56:39.804Z,101252.38
2023-03-19T03:59:07.869Z,101261.94
2023-03-19T04:01:34.731Z,101252.56
2023-03-19T04:04:01.862Z,101258.09
2023-03-19T04:06:29.682Z,101257.03
2023-03-19T04:09:11.853Z,101260.56
2023-03-19T04:11:39.315Z,101261.38
2023-03-19T04:14:08.211Z,101266.22
2023-03-19T04:16:36.832Z,101262.78
2023-03-19T04:19:03.721Z,101261.38
2023-03-19T04:21:30.669Z,101265.25
2023-03-19T04:23:57.688Z,101266.59
2023-03-19T04:26:24.598Z,101273.19
2023-03-19T04:28:51.753Z,101273.19
2023-03-19T04:31:18.953Z,101279.22
2023-03-19T04:33:46.075Z,101272.66
2023-03-19T04:36:14.235Z,101281.41
2023-03-19T04:38:41.751Z,101281.13
2023-03-19T04:41:09.070Z,101287.41
2023-03-19T04:43:39.901Z,101292.56
2023-03-19T04:46:09.721Z,101296.50
2023-03-19T04:48:38.020Z,101286.09
2023-03-19T04:51:05.416Z,101291.78
2023-03-19T04:53:33.141Z,101296.44
2023-03-19T04:55:59.995Z,101291.00
2023-03-19T04:58:27.696Z,101280.03
2023-03-19T05:01:00.002Z,101289.63
2023-03-19T05:03:50.125Z,101288.22
2023-03-19T05:06:20.226Z,101290.72
2023-03-19T05:08:47.334Z,101289.63
2023-03-19T05:11:16.787Z,101283.06
2023-03-19T05:14:01.995Z,101287.97
2023-03-19T05:16:35.945Z,101290.75
2023-03-19T05:19:03.312Z,101277.88
2023-03-19T05:21:35.264Z,101274.81
2023-03-19T05:24:04.825Z,101277.69
2023-03-19T05:26:35.583Z,101280.88
2023-03-19T05:29:10.939Z,101281.97
2023-03-19T05:31:55.553Z,101276.69
2023-03-19T05:34:22.466Z,101285.94
2023-03-19T05:36:50.089Z,101295.06
2023-03-19T05:39:19.662Z,101293.97
2023-03-19T05:41:47.106Z,101290.22
2023-03-19T05:44:18.840Z,101297.19
2023-03-19T05:47:06.005Z,101299.97
2023-03-19T05:49:36.026Z,101295.88
2023-03-19T05:52:04.636Z,101301.31
2023-03-19T05:54:32.009Z,101288.16
2023-03-19T05:57:06.013Z,101279.72
2023-03-19T06:00:02.399Z,101280.53
2023-03-19T06:02:33.048Z,101289.28
2023-03-19T06:05:23.333Z,101286.63
2023-03-19T06:07:53.273Z,101284.34
2023-03-19T06:10:40.664Z,101287.91
2023-03-19T06:13:10.951Z,101287.22
2023-03-19T06:16:00.163Z,101294.16
2023-03-19T06:18:32.175Z,101302.75
2023-03-19T06:21:02.042Z,101297.97
2023-03-19T06:23:28.916Z,101308.16
2023-03-19T06:25:55.805Z,101296.78
2023-03-19T06:28:25.449Z,101306.84
2023-03-19T06:30:54.932Z,101298.72
2023-03-19T06:33:51.510Z,101316.47
2023-03-19T06:36:18.749Z,101306.91
2023-03-19T06:38:45.979Z,101302.97
2023-03-19T06:41:12.992Z,101317.66
2023-03-19T06:46:11.460Z,101318.59
2023-03-19T06:48:38.950Z,101323.19
2023-03-19T06:51:06.290Z,101330.72
2023-03-19T06:53:33.947Z,101322.03
2023-03-19T06:56:01.397Z,101326.66
2023-03-19T06:58:28.534Z,101325.03
2023-03-19T07:00:56.851Z,101337.28
2023-03-19T07:03:24.473Z,101338.69
2023-03-19T07:05:51.929Z,101332.38
2023-03-19T07:08:18.851Z,101349.75
2023-03-19T07:10:45.739Z,101349.09
2023-03-19T07:13:12.750Z,101351.94
2023-03-19T07:15:39.571Z,101341.44
2023-03-19T07:18:06.654Z,101341.97
2023-03-19T07:20:33.962Z,101336.06
2023-03-19T07:23:00.961Z,101346.44
2023-03-19T07:39:54.837Z,101341.16
2023-03-19T07:42:21.841Z,101335.34
2023-03-19T07:44:48.668Z,101340.94
2023-03-19T07:47:27.860Z,101350.38
2023-03-19T07:49:55.818Z,101358.19
2023-03-19T07:52:22.938Z,101363.03
2023-03-19T07:54:50.714Z,101359.69
2023-03-19T07:57:17.714Z,101349.81
2023-03-19T07:59:44.642Z,101345.41
2023-03-19T08:02:13.480Z,101344.88
2023-03-19T08:04:41.476Z,101341.47
2023-03-19T08:07:10.848Z,101342.72
2023-03-19T08:09:37.980Z,101345.19
2023-03-19T08:12:05.812Z,101343.38
2023-03-19T08:14:35.873Z,101354.69
2023-03-19T08:17:02.836Z,101349.16
2023-03-19T08:19:29.808Z,101337.66
2023-03-19T08:21:56.687Z,101342.84
2023-03-19T08:24:23.725Z,101349.28
2023-03-19T08:26:50.787Z,101347.72
2023-03-19T08:29:19.061Z,101339.50
2023-03-19T08:31:46.532Z,101330.94
2023-03-19T08:34:13.433Z,101337.97
2023-03-19T08:36:40.607Z,101347.31
2023-03-19T08:39:08.890Z,101350.94
2023-03-19T08:41:36.041Z,101340.00
2023-03-19T08:44:03.027Z,101333.50
2023-03-19T08:46:30.386Z,101324.13
2023-03-19T08:48:57.520Z,101328.19
2023-03-19T08:51:26.183Z,101329.72
2023-03-19T08:53:53.858Z,101328.59
2023-03-19T08:56:20.855Z,101344.13
2023-03-19T08:58:48.201Z,101338.25
2023-03-19T09:01:16.006Z,101336.09
2023-03-19T09:03:45.454Z,101337.38
2023-03-19T09:06:14.647Z,101341.59
2023-03-19T09:08:42.340Z,101332.97
2023-03-19T09:11:11.059Z,101332.66
2023-03-19T09:13:38.032Z,101336.75
2023-03-19T09:16:05.916Z,101334.66
2023-03-19T09:18:34.081Z,101339.78
2023-03-19T09:21:01.079Z,101323.78
2023-03-19T09:23:28.514Z,101324.41
2023-03-19T09:25:55.521Z,101325.28
2023-03-19T09:28:23.101Z,101323.91
2023-03-19T09:30:51.538Z,101329.50
2023-03-19T09:33:20.511Z,101321.63
2023-03-19T09:35:52.829Z,101319.41
2023-03-19T09:38:21.334Z,101320.38
2023-03-19T09:40:54.459Z,101311.63
2023-03-19T09:43:42.062Z,101318.22
2023-03-19T09:46:19.490Z,101309.19
2023-03-19T09:49:01.010Z,101305.31
2023-03-19T09:51:55.990Z,101303.44
2023-03-19T09:54:27.655Z,101304.75
2023-03-19T09:56:54.913Z,101303.16
2023-03-19T09:59:27.800Z,101299.34
2023-03-19T10:02:20.124Z,101297.63
2023-03-19T10:05:20.840Z,101302.59
2023-03-19T10:07:47.753Z,101300.88
2023-03-19T10:10:37.696Z,101299.63
2023-03-19T10:13:10.656Z,101290.84
2023-03-19T10:15:40.323Z,101285.22
2023-03-19T10:18:21.517Z,101286.81
2023-03-19T10:21:06.654Z,101285.63
2023-03-19T10:23:42.106Z,101286.44
2023-03-19T10:26:13.145Z,101288.00
2023-03-19T10:28:43.998Z,101292.59
2023-03-19T10:31:36.833Z,101285.69
2023-03-19T10:34:22.022Z,101288.09
2023-03-19T10:36:49.055Z,101293.47
2023-03-19T10:39:17.212Z,101285.78
2023-03-19T10:42:02.962Z,101277.38
2023-03-19T10:44:42.457Z,101265.06
2023-03-19T10:47:14.831Z,101267.97
2023-03-19T10:49:42.353Z,101260.59
2023-03-19T10:52:25.286Z,101269.81
2023-03-19T10:55:12.672Z,101278.47
2023-03-19T10:57:43.053Z,101264.81
2023-03-19T11:00:24.257Z,101256.41
2023-03-19T11:02:54.216Z,101249.47
2023-03-19T11:05:32.622Z,101258.38
2023-03-19T11:08:05.922Z,101254.59
2023-03-19T11:10:36.296Z,101255.72
2023-03-19T11:13:21.680Z,101244.13
2023-03-19T11:15:49.301Z,101241.84
2023-03-19T11:18:19.251Z,101241.06
2023-03-19T11:20:54.318Z,101226.94
2023-03-19T11:23:21.351Z,101230.03
2023-03-19T11:25:53.515Z,101224.06
2023-03-19T11:28:26.270Z,101223.81
2023-03-19T11:30:53.510Z,101223.97
2023-03-19T11:33:44.037Z,101217.06
2023-03-19T11:36:22.254Z,101220.28
2023-03-19T11:39:23.154Z,101215.38
2023-03-19T11:41:56.036Z,101217.94
2023-03-19T11:44:47.484Z,101216.03
2023-03-19T11:47:39.572Z,101206.19
2023-03-19T11:50:18.780Z,101217.19
2023-03-19T11:53:24.772Z,101212.16
2023-03-19T11:55:57.738Z,101205.56
2023-03-19T11:58:52.550Z,101207.75
2023-03-19T12:01:43.289Z,101206.72
2023-03-19T12:04:29.102Z,101210.53
2023-03-19T12:07:13.954Z,101202.78
2023-03-19T12:10:26.572Z,101208.84
2023-03-19T12:13:50.775Z,101215.50
2023-03-19T12:16:29.535Z,101206.50
2023-03-19T12:19:14.694Z,101194.88
2023-03-19T12:22:03.319Z,101192.22
2023-03-19T12:25:07.724Z,101194.03
2023-03-19T12:28:02.193Z,101183.94
2023-03-19T12:30:54.056Z,101186.66
2023-03-19T12:33:34.754Z,101189.03
2023-03-19T12:36:05.401Z,101188.38
2023-03-19T12:38:43.687Z,101184.31
2023-03-19T12:41:15.122Z,101190.69
2023-03-19T12:44:03.186Z,101188.34
2023-03-19T12:46:38.912Z,101187.75
2023-03-19T12:49:16.424Z,101176.47
2023-03-19T12:51:52.834Z,101187.25
2023-03-19T12:54:35.733Z,101179.25
2023-03-19T12:57:39.986Z,101172.41
2023-03-19T13:00:20.350Z,101181.19
2023-03-19T13:02:57.749Z,101176.84
2023-03-19T13:05:39.261Z,101173.22
2023-03-19T13:08:16.957Z,101182.50
2023-03-19T13:10:43.882Z,101173.53
2023-03-19T13:13:35.777Z,101167.53
2023-03-19T13:16:21.197Z,101155.22
2023-03-19T13:18:57.422Z,101173.69
2023-03-19T13:21:32.902Z,101171.78
2023-03-19T13:24:06.933Z,101175.75
2023-03-19T13:26:35.089Z,101168.53
2023-03-19T13:29:28.453Z,101169.44
2023-03-19T13:32:06.102Z,101162.34
2023-03-19T13:34:36.109Z,101152.09
2023-03-19T13:37:23.974Z,101155.69
2023-03-19T13:39:51.053Z,101148.44
2023-03-19T13:42:41.466Z,101154.97
2023-03-19T13:45:20.284Z,101145.00
2023-03-19T13:47:49.561Z,101151.97
2023-03-19T13:50:19.298Z,101138.72
2023-03-19T13:52:50.552Z,101129.91
2023-03-19T13:55:32.799Z,101133.06
2023-03-19T13:58:37.821Z,101133.44
2023-03-19T14:01:07.136Z,101128.34
2023-03-19T14:03:37.310Z,101125.34
2023-03-19T14:06:04.759Z,101121.28
2023-03-19T14:08:47.404Z,101118.75
2023-03-19T14:11:29.116Z,101118.03
2023-03-19T14:14:00.710Z,101117.44
2023-03-19T14:16:34.620Z,101097.44
2023-03-19T14:19:05.125Z,101109.66
2023-03-19T14:22:08.032Z,101102.88
2023-03-19T14:24:58.806Z,101106.41
2023-03-19T14:27:33.457Z,101110.53
2023-03-19T14:30:09.582Z,101110.22
2023-03-19T14:32:42.674Z,101108.59
2023-03-19T14:35:17.264Z,101102.50
2023-03-19T14:37:50.382Z,101116.56
2023-03-19T14:40:24.673Z,101112.91
2023-03-19T14:43:22.500Z,101109.72
2023-03-19T14:46:05.785Z,101106.69
2023-03-19T14:48:51.343Z,101111.22
2023-03-19T14:51:36.417Z,101113.91
2023-03-19T14:54:42.797Z,101113.75
2023-03-19T14:57:27.081Z,101113.22
2023-03-19T14:59:54.904Z,101108.34
2023-03-19T15:02:30.600Z,101114.34
2023-03-19T15:05:00.512Z,101110.13
2023-03-19T15:07:40.271Z,101106.94
2023-03-19T15:10:13.904Z,101116.91
2023-03-19T15:13:25.391Z,101111.84
2023-03-19T15:16:10.975Z,101113.84
2023-03-19T15:18:38.814Z,101108.41
2023-03-19T15:21:06.435Z,101116.00
2023-03-19T15:23:34.011Z,101121.09
2023-03-19T15:26:03.309Z,101123.09
2023-03-19T15:28:45.846Z,101116.91
2023-03-19T15:31:29.862Z,101124.19
2023-03-19T15:33:58.723Z,101119.13
2023-03-19T15:36:31.700Z,101123.59
2023-03-19T15:39:11.120Z,101124.34
2023-03-19T15:41:43.388Z,101124.25
2023-03-19T15:44:17.592Z,101132.97
2023-03-19T15:46:46.027Z,101120.53
2023-03-19T15:49:37.762Z,101130.53
2023-03-19T15:52:11.371Z,101140.75
2023-03-19T15:54:38.752Z,101139.16
2023-03-19T15:57:07.008Z,101140.84
2023-03-19T15:59:34.200Z,101144.19
2023-03-19T16:02:03.865Z,101136.50
2023-03-19T16:04:38.541Z,101143.13
2023-03-19T16:07:23.610Z,101151.16
2023-03-19T16:09:50.689Z,101160.78
2023-03-19T16:12:37.341Z,101161.69
2023-03-19T16:15:33.127Z,101159.84
2023-03-19T16:18:31.082Z,101157.19
2023-03-19T16:21:36.435Z,101161.84
2023-03-19T16:24:14.924Z,101167.91
2023-03-19T16:26:44.430Z,101164.69
2023-03-19T16:29:22.687Z,101160.31
2023-03-19T16:31:52.577Z,101173.28
2023-03-19T16:34:32.265Z,101164.22
2023-03-19T16:37:00.757Z,101168.63
2023-03-19T16:39:30.657Z,101178.53
2023-03-19T16:42:28.750Z,101169.47
2023-03-19T16:44:56.437Z,101169.22
2023-03-19T16:47:23.782Z,101162.41
2023-03-19T16:49:50.900Z,101167.63
2023-03-19T16:52:22.331Z,101167.06
2023-03-19T16:54:49.789Z,101173.97
2023-03-19T16:57:17.558Z,101166.81
2023-03-19T16:59:46.088Z,101161.66
2023-03-19T17:02:18.351Z,101169.28
2023-03-19T17:04:46.046Z,101172.81
2023-03-19T17:07:13.685Z,101176.38
2023-03-19T17:09:40.659Z,101181.03
2023-03-19T17:12:13.019Z,101195.56
2023-03-19T17:14:39.959Z,101186.00
2023-03-19T17:17:22.618Z,101188.72
2023-03-19T17:19:49.683Z,101187.66
2023-03-19T17:22:16.753Z,101177.25
2023-03-19T17:24:44.081Z,101183.84
2023-03-19T17:27:11.823Z,101179.19
2023-03-19T17:29:38.842Z,101184.66
2023-03-19T17:32:13.539Z,101189.00
2023-03-19T17:34:40.463Z,101187.66
2023-03-19T17:37:13.068Z,101190.91
2023-03-19T17:39:41.840Z,101184.28
2023-03-19T17:42:23.476Z,101187.03
2023-03-19T17:44:50.730Z,101191.16
2023-03-19T17:47:19.148Z,101198.28
2023-03-19T17:49:46.445Z,101193.31
2023-03-19T17:52:16.316Z,101197.97
2023-03-19T17:54:43.854Z,101203.47
2023-03-19T17:57:13.373Z,101199.38
2023-03-19T17:59:40.429Z,101206.00
2023-03-19T18:02:32.885Z,101214.44
2023-03-19T18:05:00.334Z,101214.50
2023-03-19T18:07:27.206Z,101218.03
2023-03-19T18:09:54.056Z,101215.00
2023-03-19T18:12:21.084Z,101216.59
2023-03-19T18:14:48.013Z,101225.31
2023-03-19T18:17:17.125Z,101217.16
2023-03-19T18:19:47.516Z,101228.63
2023-03-19T18:22:18.693Z,101225.81
2023-03-19T18:24:46.061Z,101224.72
2023-03-19T18:27:12.980Z,101227.19
2023-03-19T18:29:39.936Z,101227.22
2023-03-19T18:32:13.741Z,101231.66
2023-03-19T18:34:40.659Z,101238.78
2023-03-19T18:37:07.591Z,101230.78
2023-03-19T18:39:38.123Z,101228.06
2023-03-19T18:42:05.040Z,101230.22
2023-03-19T18:44:31.942Z,101226.72
2023-03-19T18:46:58.872Z,101226.72
2023-03-19T18:49:27.659Z,101228.06
2023-03-19T18:52:02.654Z,101220.44
2023-03-19T18:54:31.282Z,101226.72
2023-03-19T18:57:00.506Z,101222.56
2023-03-19T18:59:30.909Z,101223.66
2023-03-19T19:02:01.895Z,101221.19
2023-03-19T19:04:29.927Z,101230.78
2023-03-19T19:06:57.043Z,101232.44
2023-03-19T19:09:23.915Z,101233.28
2023-03-19T19:11:50.868Z,101239.00
2023-03-19T19:14:23.825Z,101230.16
2023-03-19T19:16:51.765Z,101231.75
2023-03-19T19:19:24.922Z,101227.31
2023-03-19T19:21:52.112Z,101226.53
2023-03-19T19:24:19.277Z,101222.84
2023-03-19T19:26:48.352Z,101229.22
2023-03-19T19:41:36.748Z,101230.94
2023-03-19T19:44:04.158Z,101237.25
2023-03-19T19:46:32.036Z,101236.44
2023-03-19T19:48:59.562Z,101221.56
2023-03-19T19:51:29.000Z,101228.13
2023-03-19T19:53:55.951Z,101224.84
2023-03-19T19:56:25.766Z,101221.13
2023-03-19T19:58:54.888Z,101220.72
2023-03-19T20:01:24.922Z,101216.91
2023-03-19T20:03:52.805Z,101220.06
2023-03-19T20:06:20.459Z,101211.34
2023-03-19T20:08:50.722Z,101221.44
2023-03-19T20:11:20.367Z,101218.66
2023-03-19T20:13:51.552Z,101211.91
2023-03-19T20:16:20.104Z,101221.31
2023-03-19T20:18:47.698Z,101210.09
2023-03-19T20:21:16.050Z,101221.06
2023-03-19T20:23:45.187Z,101212.25
2023-03-19T20:26:17.516Z,101218.56
2023-03-19T20:28:45.084Z,101221.56
2023-03-19T20:31:26.470Z,101212.53
2023-03-19T20:33:53.398Z,101212.56
2023-03-19T20:36:20.503Z,101214.44
2023-03-19T20:38:47.418Z,101216.94
2023-03-19T20:41:23.680Z,101218.25
2023-03-19T20:43:52.164Z,101215.53
2023-03-19T20:46:21.095Z,101219.41
2023-03-19T20:48:48.842Z,101214.75
2023-03-19T20:51:21.758Z,101223.81
2023-03-19T20:53:49.933Z,101201.56
2023-03-19T20:56:20.341Z,101205.69
2023-03-19T20:58:47.401Z,101204.88
2023-03-19T21:01:15.627Z,101202.13
2023-03-19T21:03:42.809Z,101207.88
2023-03-19T21:06:18.101Z,101204.00
2023-03-19T21:08:58.830Z,101205.13
2023-03-19T21:11:40.909Z,101207.38
2023-03-19T21:14:15.970Z,101208.22
2023-03-19T21:16:42.826Z,101212.00
2023-03-19T21:19:09.779Z,101209.25
2023-03-19T21:21:37.683Z,101202.13
2023-03-19T21:24:08.131Z,101201.03
2023-03-19T21:26:38.154Z,101202.09
2023-03-19T21:29:08.337Z,101201.03
2023-03-19T21:31:35.630Z,101198.00
2023-03-19T21:34:02.633Z,101197.78
2023-03-19T21:36:29.615Z,101206.81
2023-03-19T21:38:56.730Z,101208.44
2023-03-19T21:41:30.492Z,101206.84
2023-03-19T21:44:03.183Z,101211.19
2023-03-19T21:46:31.733Z,101213.16
2023-03-19T21:48:59.340Z,101206.78
2023-03-19T21:51:29.573Z,101214.44
2023-03-19T21:53:56.567Z,101212.56
2023-03-19T21:56:32.590Z,101222.47
2023-03-19T21:59:10.408Z,101217.75
2023-03-19T22:01:37.278Z,101216.97
2023-03-19T22:04:04.120Z,101214.78
2023-03-19T22:06:31.390Z,101203.81
2023-03-19T22:08:59.386Z,101214.50
2023-03-19T22:11:32.453Z,101210.09
2023-03-19T22:14:14.969Z,101216.97
2023-03-19T22:16:42.604Z,101205.69
2023-03-19T22:19:14.436Z,101213.69
2023-03-19T22:21:41.443Z,101213.69
2023-03-19T22:24:08.433Z,101210.94
2023-03-19T22:26:38.700Z,101202.41
2023-03-19T22:29:13.680Z,101199.88
2023-03-19T22:31:41.309Z,101190.25
2023-03-19T22:34:14.958Z,101208.63
2023-03-19T22:36:41.942Z,101203.13
2023-03-19T22:39:09.269Z,101207.59
2023-03-19T22:41:41.069Z,101199.06
2023-03-19T22:44:13.299Z,101195.78
2023-03-19T22:46:40.439Z,101197.38
2023-03-19T22:49:13.641Z,101190.56
2023-03-19T22:51:40.556Z,101184.25
2023-03-19T22:54:07.484Z,101193.06
2023-03-19T22:56:34.258Z,101184.47
2023-03-19T22:59:01.363Z,101189.50
2023-03-19T23:01:34.929Z,101197.47
2023-03-19T23:04:18.174Z,101190.66
2023-03-19T23:06:45.386Z,101193.97
2023-03-19T23:09:17.942Z,101176.97
2023-03-19T23:11:45.289Z,101181.84
2023-03-19T23:14:26.339Z,101188.09
2023-03-19T23:19:28.457Z,101184.09
2023-03-19T23:21:55.957Z,101176.19
2023-03-19T23:24:24.356Z,101176.44
2023-03-19T23:26:54.399Z,101178.06
2023-03-19T23:29:29.855Z,101178.63
2023-03-19T23:31:59.672Z,101171.44
2023-03-19T23:34:28.750Z,101164.06
2023-03-19T23:36:56.347Z,101166.50
2023-03-19T23:39:24.125Z,101165.97
2023-03-19T23:41:54.633Z,101160.25
2023-03-19T23:44:22.105Z,101161.09
2023-03-19T23:46:51.605Z,101164.91
2023-03-19T23:49:28.920Z,101157.00
2023-03-19T23:51:56.718Z,101152.84
2023-03-19T23:54:34.501Z,101159.41
2023-03-19T23:57:06.706Z,101154.47
2023-03-19T23:59:37.150Z,101156.69
